Time;durP1;ratioP1;P1;durP2;ratioP2;P2;SDS_P1;SDS_P2;PMS_P1;PMS_P2;Temp;Humidity;BMP_temperature;BMP_pressure;BME280_temperature;BME280_humidity;BME280_pressure;Samples;Min_cycle;Max_cycle;Signal;HPM_P1;HPM_P2
2022/06/26 00:01:28;;;;;;;6.10;4.28;;;;;;;21.63;61.52;100623.55;1661003;84;21070;-49
2022/06/26 00:03:55;;;;;;;6.53;3.90;;;;;;;21.63;61.41;100626.23;1663448;84;21043;-50
2022/06/26 00:06:22;;;;;;;9.53;4.58;;;;;;;21.59;61.35;100623.63;1669761;84;21137;-50
2022/06/26 00:08:48;;;;;;;6.22;3.83;;;;;;;21.55;61.35;100629.53;1680390;84;21092;-49
2022/06/26 00:11:16;;;;;;;6.90;3.83;;;;;;;21.50;61.37;100632.28;1663739;84;21157;-50
2022/06/26 00:13:42;;;;;;;7.47;4.35;;;;;;;21.45;61.20;100627.97;1668567;84;21114;-50
2022/06/26 00:16:09;;;;;;;8.25;4.87;;;;;;;21.45;60.83;100634.66;1667412;84;21032;-49
2022/06/26 00:18:36;;;;;;;6.60;4.75;;;;;;;21.47;60.29;100633.99;1672927;84;21101;-49
2022/06/26 00:21:03;;;;;;;11.40;5.12;;;;;;;21.47;60.11;100639.34;1670369;84;21067;-50
2022/06/26 00:23:30;;;;;;;6.83;4.25;;;;;;;21.44;60.08;100639.69;1664734;85;21122;-50
2022/06/26 00:25:57;;;;;;;6.60;4.70;;;;;;;21.43;60.23;100636.67;1662353;84;21585;-49
2022/06/26 00:28:23;;;;;;;9.63;4.78;;;;;;;21.41;60.47;100643.25;1668670;84;21483;-50
2022/06/26 00:30:50;;;;;;;9.65;4.60;;;;;;;21.42;60.50;100644.92;1670679;82;21518;-49
2022/06/26 00:33:17;;;;;;;9.00;5.03;;;;;;;21.48;60.40;100645.52;1662838;84;21079;-49
2022/06/26 00:35:43;;;;;;;7.72;4.72;;;;;;;21.49;60.39;100645.86;1671370;84;21261;-49
2022/06/26 00:38:10;;;;;;;8.60;5.35;;;;;;;21.49;60.17;100651.21;1671172;84;21004;-49
2022/06/26 00:40:38;;;;;;;8.95;5.45;;;;;;;21.45;60.09;100650.73;1707240;82;21123;-49
2022/06/26 00:43:06;;;;;;;7.50;4.97;;;;;;;21.38;60.20;100650.31;1698462;83;21111;-49
2022/06/26 00:45:33;;;;;;;8.38;5.12;;;;;;;21.31;60.34;100649.72;1705421;82;21074;-49
2022/06/26 00:47:59;;;;;;;8.25;4.97;;;;;;;21.28;60.46;100645.25;1701798;82;21148;-50
2022/06/26 00:50:26;;;;;;;10.35;4.85;;;;;;;21.24;60.59;100646.66;1699971;82;21473;-50
2022/06/26 00:52:56;;;;;;;7.55;5.05;;;;;;;21.18;60.65;100650.87;1707759;82;21076;-49
2022/06/26 00:55:22;;;;;;;10.55;6.20;;;;;;;21.11;60.83;100658.81;1697028;82;21072;-48
2022/06/26 00:57:50;;;;;;;7.92;5.17;;;;;;;21.02;61.01;100660.46;1690826;82;21151;-53
2022/06/26 01:00:20;;;;;;;8.18;5.25;;;;;;;20.97;61.08;100654.32;1641976;84;21062;-48
2022/06/26 01:02:46;;;;;;;7.47;5.37;;;;;;;20.99;61.08;100654.96;1695514;82;21139;-49
2022/06/26 01:05:13;;;;;;;9.00;4.75;;;;;;;20.97;61.08;100657.81;1703496;81;21143;-49
2022/06/26 01:07:40;;;;;;;9.00;5.65;;;;;;;20.96;61.16;100649.97;1705765;81;21076;-49
2022/06/26 01:10:08;;;;;;;7.97;5.17;;;;;;;20.93;61.19;100655.20;1713279;83;21028;-49
2022/06/26 01:12:35;;;;;;;8.08;5.05;;;;;;;20.91;61.15;100649.21;1716188;81;21082;-49
2022/06/26 01:15:06;;;;;;;7.78;5.30;;;;;;;20.91;61.30;100649.70;1700109;82;21100;-49
2022/06/26 01:17:34;;;;;;;9.45;5.78;;;;;;;20.91;61.21;100659.91;1676139;84;21124;-49
2022/06/26 01:20:04;;;;;;;8.25;5.20;;;;;;;20.92;61.09;100661.55;1673779;83;21080;-49
2022/06/26 01:22:31;;;;;;;7.42;5.12;;;;;;;20.88;61.08;100660.27;1673445;84;21129;-49
2022/06/26 01:24:59;;;;;;;7.62;5.22;;;;;;;20.84;61.26;100660.81;1679200;83;21558;-49
2022/06/26 01:27:27;;;;;;;8.95;5.15;;;;;;;20.77;61.53;100660.20;1708975;82;21590;-49
2022/06/26 01:29:53;;;;;;;9.75;5.00;;;;;;;20.77;61.41;100658.86;1704476;83;21025;-49
2022/06/26 01:32:20;;;;;;;8.30;5.90;;;;;;;20.80;61.36;100665.70;1699438;82;21108;-49
2022/06/26 01:34:46;;;;;;;7.92;4.87;;;;;;;20.81;61.36;100666.53;1693629;83;21095;-49
2022/06/26 01:37:13;;;;;;;11.05;5.95;;;;;;;20.78;61.44;100668.56;1707445;83;21142;-49
2022/06/26 01:39:39;;;;;;;7.87;4.55;;;;;;;20.76;61.47;100667.92;1707402;82;21594;-49
2022/06/26 01:42:06;;;;;;;8.13;5.12;;;;;;;20.76;61.47;100669.73;1706640;82;21632;-49
2022/06/26 01:44:32;;;;;;;7.67;5.47;;;;;;;20.73;61.60;100663.45;1709126;82;21083;-49
2022/06/26 01:47:00;;;;;;;13.08;6.08;;;;;;;20.70;61.68;100673.16;1713865;82;21064;-50
2022/06/26 01:49:30;;;;;;;8.45;5.00;;;;;;;20.65;61.84;100677.72;1713140;82;21256;-49
2022/06/26 01:51:57;;;;;;;9.25;5.30;;;;;;;20.62;61.89;100673.21;1702367;83;21039;-49
2022/06/26 01:54:24;;;;;;;8.70;5.60;;;;;;;20.56;61.99;100676.94;1706289;82;21143;-49
2022/06/26 01:56:51;;;;;;;7.35;5.33;;;;;;;20.52;62.05;100678.29;1679370;83;21128;-49
2022/06/26 01:59:18;;;;;;;8.25;5.30;;;;;;;20.55;62.03;100681.13;1708629;82;21130;-49
2022/06/26 02:01:46;;;;;;;7.58;5.28;;;;;;;20.56;62.14;100676.94;1709988;82;21153;-51
2022/06/26 02:04:16;;;;;;;9.78;5.72;;;;;;;20.58;62.21;100677.58;1701664;83;21115;-49
2022/06/26 02:06:43;;;;;;;8.30;5.58;;;;;;;20.58;62.31;100681.59;1695319;83;21079;-49
2022/06/26 02:13:36;;;;;;;8.60;5.50;;;;;;;20.60;62.53;100680.07;1702460;83;21100;-49
2022/06/26 02:14:26;;;;;;;8.08;5.95;;;;;;;20.60;62.46;100690.25;1687428;82;21222;-49
2022/06/26 02:16:56;;;;;;;8.55;5.62;;;;;;;20.59;62.43;100692.62;1713548;81;21091;-49
2022/06/26 02:19:23;;;;;;;8.00;5.50;;;;;;;20.62;62.53;100694.59;1713562;82;21061;-49
2022/06/26 02:21:50;;;;;;;9.75;5.17;;;;;;;20.69;62.49;100695.56;1706587;83;21125;-49
2022/06/26 02:24:17;;;;;;;10.50;6.22;;;;;;;20.74;62.52;100702.52;1705534;82;21091;-49
2022/06/26 02:26:44;;;;;;;8.60;5.83;;;;;;;20.72;63.00;100699.21;1713098;82;21142;-48
2022/06/26 02:29:10;;;;;;;8.53;5.72;;;;;;;20.69;63.29;100697.72;1710786;82;21134;-49
2022/06/26 02:31:38;;;;;;;7.78;5.28;;;;;;;20.65;63.04;100703.62;1710598;82;21096;-49
2022/06/26 02:34:07;;;;;;;7.92;6.45;;;;;;;20.62;63.09;100707.97;1702601;83;21541;-52
2022/06/26 02:36:34;;;;;;;7.87;5.65;;;;;;;20.53;63.23;100701.86;1699737;82;21518;-49
2022/06/26 02:39:00;;;;;;;8.40;4.92;;;;;;;20.52;63.31;100709.55;1708597;82;21282;-49
2022/06/26 02:41:27;;;;;;;8.55;6.08;;;;;;;20.57;63.38;100703.16;1674148;83;21062;-49
2022/06/26 02:43:55;;;;;;;10.50;5.87;;;;;;;20.61;63.33;100703.13;1674189;84;21064;-49
2022/06/26 02:46:22;;;;;;;7.30;5.30;;;;;;;20.62;63.40;100705.29;1667954;84;21088;-49
2022/06/26 02:48:49;;;;;;;9.08;5.75;;;;;;;20.62;63.45;100702.62;1665349;84;21125;-48
2022/06/26 02:51:18;;;;;;;8.70;6.25;;;;;;;20.60;63.44;100702.28;1674420;84;21216;-49
2022/06/26 02:53:45;;;;;;;8.80;5.72;;;;;;;20.61;63.33;100709.81;1669083;84;21071;-49
2022/06/26 02:56:12;;;;;;;8.03;5.75;;;;;;;20.58;63.30;100713.67;1711315;82;21527;-48
2022/06/26 02:58:40;;;;;;;8.88;5.25;;;;;;;20.51;63.29;100719.90;1712801;82;21433;-49
2022/06/26 03:01:07;;;;;;;7.28;5.50;;;;;;;20.52;63.34;100724.25;1709945;82;21526;-49
2022/06/26 03:03:35;;;;;;;12.05;6.03;;;;;;;20.59;63.03;100727.86;1697160;82;21151;-48
2022/06/26 03:06:02;;;;;;;7.72;5.72;;;;;;;20.64;62.78;100731.36;1697886;83;21080;-49
2022/06/26 03:08:29;;;;;;;11.60;6.20;;;;;;;20.64;62.63;100733.52;1707181;82;21127;-49
2022/06/26 03:10:57;;;;;;;10.18;7.03;;;;;;;20.68;62.46;100728.64;1701218;82;21144;-49
2022/06/26 03:13:24;;;;;;;9.58;6.55;;;;;;;20.76;62.03;100732.58;1703008;82;21099;-49
2022/06/26 03:15:51;;;;;;;8.55;6.10;;;;;;;20.82;61.78;100728.37;1707726;82;21191;-49
2022/06/26 03:18:19;;;;;;;7.83;5.67;;;;;;;20.85;61.69;100729.34;1697096;82;21034;-49
2022/06/26 03:20:45;;;;;;;11.88;6.28;;;;;;;20.85;61.51;100734.70;1702109;82;21136;-49
2022/06/26 03:23:12;;;;;;;7.90;6.20;;;;;;;20.84;61.65;100732.52;1685233;83;21662;-49
2022/06/26 03:25:38;;;;;;;10.58;5.05;;;;;;;20.88;61.48;100730.30;1703567;82;21128;-50
2022/06/26 03:28:05;;;;;;;9.13;5.78;;;;;;;20.99;61.11;100729.04;1700759;83;21114;-49
2022/06/26 03:30:34;;;;;;;10.25;6.03;;;;;;;21.06;60.44;100733.45;1703167;82;21023;-49
2022/06/26 03:33:01;;;;;;;7.37;5.60;;;;;;;21.10;60.36;100744.13;1708919;82;21099;-49
2022/06/26 03:35:28;;;;;;;7.78;5.62;;;;;;;21.13;60.12;100741.58;1705887;83;21013;-49
2022/06/26 03:37:55;;;;;;;9.98;6.20;;;;;;;21.16;60.23;100751.92;1705445;83;21127;-49
2022/06/26 03:40:22;;;;;;;7.35;5.50;;;;;;;21.19;60.08;100748.06;1700452;83;21246;-49
2022/06/26 03:42:49;;;;;;;7.10;5.08;;;;;;;21.17;59.89;100749.58;1698379;83;21077;-49
2022/06/26 03:45:16;;;;;;;9.18;6.22;;;;;;;21.17;60.07;100750.92;1707681;82;21076;-48
2022/06/26 03:47:43;;;;;;;8.25;6.08;;;;;;;21.17;60.02;100748.25;1700831;82;21056;-49
2022/06/26 03:50:10;;;;;;;8.45;5.90;;;;;;;21.16;60.03;100749.25;1704311;82;21025;-49
2022/06/26 03:52:37;;;;;;;9.23;5.83;;;;;;;21.16;60.30;100757.28;1707924;82;21150;-49
2022/06/26 03:55:06;;;;;;;7.10;5.08;;;;;;;21.22;59.95;100763.76;1710381;82;21759;-49
2022/06/26 03:57:33;;;;;;;6.80;5.17;;;;;;;21.30;59.82;100753.79;1705302;82;21077;-49
2022/06/26 04:00:00;;;;;;;8.30;5.00;;;;;;;21.41;59.25;100755.68;1699285;83;21098;-49
2022/06/26 04:02:45;;;;;;;8.43;5.15;;;;;;;21.46;59.11;100760.79;1706602;82;21555;-49
2022/06/26 04:05:16;;;;;;;7.08;5.12;;;;;;;21.52;58.86;100755.25;1698887;82;22142;-49
2022/06/26 04:07:44;;;;;;;10.18;5.15;;;;;;;21.55;58.49;100756.19;1707847;83;21099;-48
2022/06/26 04:10:13;;;;;;;7.20;5.08;;;;;;;21.57;57.73;100759.54;1703291;82;22308;-49
2022/06/26 04:12:40;;;;;;;8.58;4.87;;;;;;;21.54;57.76;100757.23;1707668;82;21544;-49
2022/06/26 04:15:09;;;;;;;7.37;5.03;;;;;;;21.57;57.97;100758.69;1699610;81;21642;-49
2022/06/26 04:17:38;;;;;;;7.50;4.92;;;;;;;21.59;57.98;100756.16;1704059;82;22607;-49
2022/06/26 04:20:08;;;;;;;9.60;6.28;;;;;;;21.63;58.15;100752.08;1701110;82;21195;-49
2022/06/26 04:22:35;;;;;;;9.48;6.22;;;;;;;21.63;57.82;100753.42;1704362;82;21052;-49
2022/06/26 04:25:03;;;;;;;10.10;5.25;;;;;;;21.62;58.23;100741.06;1706232;82;21068;-49
2022/06/26 04:27:30;;;;;;;9.53;6.33;;;;;;;21.61;58.24;100744.75;1703466;83;21103;-49
2022/06/26 04:29:57;;;;;;;7.75;5.85;;;;;;;21.61;58.55;100743.41;1702723;83;21204;-48
2022/06/26 04:32:24;;;;;;;10.15;5.65;;;;;;;21.64;58.30;100739.02;1704235;82;21103;-49
2022/06/26 04:34:52;;;;;;;8.53;5.95;;;;;;;21.73;58.26;100736.24;1678268;84;22244;-49
2022/06/26 04:37:19;;;;;;;7.35;5.47;;;;;;;21.74;58.72;100739.22;1667593;84;21498;-49
2022/06/26 04:39:45;;;;;;;9.78;5.92;;;;;;;21.74;58.54;100744.09;1671044;84;21094;-49
2022/06/26 04:42:13;;;;;;;8.38;5.37;;;;;;;21.76;58.41;100738.55;1665942;84;21165;-49
2022/06/26 04:44:40;;;;;;;9.05;5.60;;;;;;;21.77;58.46;100737.03;1667476;84;21094;-49
2022/06/26 04:47:06;;;;;;;6.90;5.28;;;;;;;21.80;58.61;100737.97;1677309;84;21096;-48
2022/06/26 04:49:35;;;;;;;9.05;5.42;;;;;;;21.81;58.46;100740.16;1665892;84;21149;-49
2022/06/26 04:52:04;;;;;;;6.75;5.72;;;;;;;21.83;58.39;100741.61;1673215;84;21118;-49
2022/06/26 04:54:33;;;;;;;8.53;4.75;;;;;;;21.84;58.09;100743.80;1679079;84;21182;-52
2022/06/26 04:56:59;;;;;;;9.83;5.33;;;;;;;21.85;58.26;100746.78;1675528;84;21040;-49
2022/06/26 04:59:27;;;;;;;7.03;5.10;;;;;;;21.93;58.42;100753.38;1667921;84;21145;-48
2022/06/26 05:01:55;;;;;;;7.30;4.55;;;;;;;22.02;57.88;100753.59;1675262;84;21687;-49
2022/06/26 05:04:40;;;;;;;11.80;5.47;;;;;;;22.06;57.41;100756.72;1671329;84;22370;-49
2022/06/26 05:07:15;;;;;;;;;;;;;;;22.11;57.18;100758.81;1675977;84;21266;-49
2022/06/26 05:09:44;;;;;;;7.60;4.83;;;;;;;22.17;57.46;100758.06;1675516;84;20229;-49
2022/06/26 05:12:12;;;;;;;9.08;5.55;;;;;;;22.20;57.91;100762.53;1674172;84;21127;-49
2022/06/26 05:14:45;;;;;;;8.65;4.67;;;;;;;22.28;58.03;100767.47;1673996;84;21083;-48
2022/06/26 05:17:13;;;;;;;7.62;5.12;;;;;;;22.32;57.22;100757.53;1678887;84;21691;-48
2022/06/26 05:19:39;;;;;;;7.50;4.53;;;;;;;22.35;56.66;100761.69;1666601;84;21105;-48
2022/06/26 05:22:08;;;;;;;6.47;5.10;;;;;;;22.39;56.75;100754.91;1674042;84;21605;-49
2022/06/26 05:24:37;;;;;;;6.90;4.95;;;;;;;22.45;57.13;100764.88;1668943;84;21032;-51
2022/06/26 05:27:05;;;;;;;7.30;5.12;;;;;;;22.50;56.72;100763.79;1674151;84;21094;-49
2022/06/26 05:29:32;;;;;;;7.83;6.25;;;;;;;22.54;56.82;100762.37;1674761;84;21052;-49
2022/06/26 05:31:59;;;;;;;8.18;5.45;;;;;;;22.57;56.82;100766.53;1675485;84;21168;-49
2022/06/26 05:34:25;;;;;;;6.87;4.70;;;;;;;22.65;56.68;100766.41;1660404;84;21009;-49
2022/06/26 05:36:52;;;;;;;9.08;5.45;;;;;;;22.79;56.11;100770.84;1675499;83;22101;-49
2022/06/26 05:39:20;;;;;;;7.60;5.28;;;;;;;22.89;55.61;100764.33;1697906;82;21108;-49
2022/06/26 05:41:47;;;;;;;6.83;5.03;;;;;;;22.96;55.80;100758.00;1712210;82;21076;-49
2022/06/26 05:44:14;;;;;;;7.50;5.70;;;;;;;23.05;55.67;100765.38;1706516;83;21093;-49
2022/06/26 05:46:43;;;;;;;8.93;5.58;;;;;;;23.14;55.25;100758.03;1698279;82;21078;-50
2022/06/26 05:49:28;;;;;;;8.10;4.95;;;;;;;23.17;54.66;100754.95;1697690;83;21546;-49
2022/06/26 05:51:57;;;;;;;8.10;4.83;;;;;;;23.23;55.19;100758.70;1625619;83;21128;-49
2022/06/26 05:54:26;;;;;;;7.12;4.95;;;;;;;23.28;54.46;100758.94;1668117;84;22277;-49
2022/06/26 05:57:11;;;;;;;7.80;4.58;;;;;;;23.30;54.09;100755.53;1698739;82;23459;-48
2022/06/26 05:59:39;;;;;;;6.42;4.70;;;;;;;23.35;54.82;100752.59;1700600;82;21593;-48
2022/06/26 06:02:13;;;;;;;8.13;5.05;;;;;;;23.40;54.91;100753.31;1696142;83;21106;-50
2022/06/26 06:04:40;;;;;;;6.83;4.67;;;;;;;23.45;54.56;100756.75;1667061;84;21749;-48
2022/06/26 06:07:06;;;;;;;7.28;4.65;;;;;;;23.47;54.61;100758.23;1693956;83;21044;-49
2022/06/26 06:09:33;;;;;;;7.20;4.70;;;;;;;23.50;54.67;100758.33;1717054;81;21518;-49
2022/06/26 06:12:00;;;;;;;7.47;4.65;;;;;;;23.53;54.33;100760.09;1689263;82;21055;-49
2022/06/26 06:14:27;;;;;;;6.15;4.45;;;;;;;23.57;53.62;100764.59;1699705;83;21179;-52
2022/06/26 06:16:53;;;;;;;7.50;4.72;;;;;;;23.61;54.15;100762.33;1708440;81;21099;-49
2022/06/26 06:19:20;;;;;;;6.95;4.70;;;;;;;23.68;53.82;100764.52;1713508;81;21064;-49
2022/06/26 06:21:46;;;;;;;6.15;4.12;;;;;;;23.74;53.60;100765.89;1713509;81;21148;-49
2022/06/26 06:24:13;;;;;;;6.17;4.40;;;;;;;23.80;53.70;100766.94;1703867;83;21072;-49
2022/06/26 06:26:40;;;;;;;5.37;3.95;;;;;;;23.87;53.02;100770.53;1704722;81;21143;-48
2022/06/26 06:29:11;;;;;;;9.10;4.67;;;;;;;23.92;53.14;100772.59;1700473;81;21091;-49
2022/06/26 06:31:38;;;;;;;5.92;4.22;;;;;;;23.99;52.95;100778.84;1705655;81;21040;-49
2022/06/26 06:34:06;;;;;;;7.20;4.33;;;;;;;24.06;52.50;100781.55;1711851;82;21142;-49
2022/06/26 06:36:33;;;;;;;7.47;4.25;;;;;;;24.11;52.16;100780.42;1698416;81;21147;-49
2022/06/26 06:39:00;;;;;;;7.12;4.17;;;;;;;24.14;52.23;100774.65;1695172;83;21127;-49
2022/06/26 06:41:27;;;;;;;8.43;4.60;;;;;;;24.21;52.43;100770.60;1719005;82;21054;-49
2022/06/26 06:43:55;;;;;;;7.08;4.40;;;;;;;24.26;51.93;100772.19;1712868;82;21055;-49
2022/06/26 06:46:28;;;;;;;6.70;4.75;;;;;;;24.33;51.88;100776.23;1703467;82;21130;-49
2022/06/26 06:49:11;;;;;;;8.13;4.60;;;;;;;24.38;51.75;100773.77;1607337;87;21138;-58
2022/06/26 06:51:51;;;;;;;5.55;4.10;;;;;;;24.45;51.73;100770.56;1676932;83;21117;-58
2022/06/26 06:54:18;;;;;;;7.00;4.62;;;;;;;24.52;51.72;100775.42;1713894;82;21074;-62
2022/06/26 06:56:45;;;;;;;6.85;4.28;;;;;;;24.60;51.33;100780.64;1705006;81;21542;-58
2022/06/26 06:59:12;;;;;;;6.80;4.47;;;;;;;24.68;50.84;100774.73;1711025;81;21240;-58
2022/06/26 07:01:39;;;;;;;5.90;4.00;;;;;;;24.77;50.60;100782.93;1710604;82;21554;-58
2022/06/26 07:04:07;;;;;;;5.60;3.85;;;;;;;24.82;50.47;100782.61;1699919;82;21605;-58
2022/06/26 07:06:34;;;;;;;6.33;4.20;;;;;;;24.86;50.40;100777.63;1711977;82;21060;-58
2022/06/26 07:09:00;;;;;;;6.17;4.20;;;;;;;24.88;50.28;100772.89;1718266;82;21099;-58
2022/06/26 07:11:29;;;;;;;6.17;4.15;;;;;;;24.93;49.73;100775.78;1713585;82;21267;-59
2022/06/26 07:13:56;;;;;;;5.62;4.10;;;;;;;25.01;49.24;100779.58;1710389;82;21536;-58
2022/06/26 07:16:23;;;;;;;8.03;4.33;;;;;;;25.10;49.51;100780.22;1715358;81;21126;-59
2022/06/26 07:18:51;;;;;;;7.05;4.05;;;;;;;25.22;48.95;100779.06;1698759;83;21060;-58
2022/06/26 07:21:19;;;;;;;7.92;4.30;;;;;;;25.34;48.49;100777.40;1699244;83;21040;-58
2022/06/26 07:23:45;;;;;;;5.47;3.62;;;;;;;25.47;48.36;100777.89;1698812;83;21087;-58
2022/06/26 07:26:19;;;;;;;5.15;3.33;;;;;;;25.59;48.12;100772.67;1706653;82;21509;-58
2022/06/26 07:28:46;;;;;;;6.37;3.70;;;;;;;25.72;48.27;100771.28;1691773;82;22154;-58
2022/06/26 07:31:12;;;;;;;6.60;4.20;;;;;;;25.86;48.38;100769.88;1668692;84;22376;-58
2022/06/26 07:36:24;;;;;;;4.65;2.67;;;;;;;26.05;46.33;100762.75;1671273;84;21172;-59
2022/06/26 07:38:51;;;;;;;4.20;2.10;;;;;;;26.13;45.16;100763.31;1667659;84;21108;-59
2022/06/26 07:41:17;;;;;;;5.47;2.72;;;;;;;26.21;44.18;100764.09;1678512;83;21099;-59
2022/06/26 07:43:44;;;;;;;5.67;2.50;;;;;;;26.29;44.14;100757.09;1692331;83;21165;-58
2022/06/26 07:46:10;;;;;;;6.67;2.62;;;;;;;26.38;44.18;100749.55;1668123;84;21146;-59
2022/06/26 07:48:37;;;;;;;4.42;2.65;;;;;;;26.44;44.16;100752.73;1672414;84;21131;-59
2022/06/26 07:51:04;;;;;;;6.55;2.60;;;;;;;26.51;42.47;100762.45;1672559;84;21091;-59
2022/06/26 07:53:31;;;;;;;5.17;2.70;;;;;;;26.55;41.88;100762.02;1672768;84;21107;-59
2022/06/26 07:55:57;;;;;;;5.83;2.52;;;;;;;26.59;42.62;100765.38;1666297;84;21634;-58
2022/06/26 07:58:24;;;;;;;4.55;2.70;;;;;;;26.66;42.68;100762.66;1669601;85;22311;-58
2022/06/26 08:00:52;;;;;;;10.13;3.10;;;;;;;26.72;42.40;100763.67;1664312;84;21718;-59
2022/06/26 08:03:18;;;;;;;6.83;2.33;;;;;;;26.73;41.73;100776.09;1671199;84;21576;-58
2022/06/26 08:05:46;;;;;;;4.45;2.60;;;;;;;26.76;42.71;100766.22;1667170;84;21130;-59
2022/06/26 08:08:13;;;;;;;4.53;2.62;;;;;;;26.82;43.40;100768.86;1663656;84;21090;-59
2022/06/26 08:10:40;;;;;;;6.33;3.05;;;;;;;26.88;42.81;100769.34;1676117;84;21115;-59
2022/06/26 08:13:07;;;;;;;4.95;2.80;;;;;;;26.97;42.37;100771.75;1670401;84;21166;-59
2022/06/26 08:15:35;;;;;;;4.70;2.62;;;;;;;27.02;42.63;100773.27;1665327;84;21123;-59
2022/06/26 08:18:02;;;;;;;5.25;2.70;;;;;;;27.09;42.57;100777.25;1671564;84;21015;-59
2022/06/26 08:20:29;;;;;;;5.15;2.60;;;;;;;27.13;42.09;100768.45;1670759;84;21055;-58
2022/06/26 08:22:56;;;;;;;4.17;2.50;;;;;;;27.19;42.12;100767.57;1677141;84;21087;-58
2022/06/26 08:25:22;;;;;;;4.58;2.55;;;;;;;27.27;42.24;100762.91;1663224;84;21153;-59
2022/06/26 08:27:49;;;;;;;5.80;2.80;;;;;;;27.35;41.91;100757.25;1670977;84;21043;-59
2022/06/26 08:30:15;;;;;;;4.75;2.77;;;;;;;27.37;40.89;100760.05;1680417;84;21062;-60
2022/06/26 08:32:42;;;;;;;6.12;3.05;;;;;;;27.37;40.91;100760.55;1674094;84;21602;-58
2022/06/26 08:35:11;;;;;;;4.90;2.77;;;;;;;27.34;40.82;100762.37;1673747;84;21078;-58
2022/06/26 08:37:37;;;;;;;5.55;2.98;;;;;;;27.29;40.05;100761.69;1674478;84;22067;-59
2022/06/26 08:40:06;;;;;;;4.92;2.90;;;;;;;27.23;40.85;100764.74;1675291;84;21429;-59
2022/06/26 08:42:32;;;;;;;5.87;3.05;;;;;;;27.28;41.54;100760.53;1667472;84;21402;-59
2022/06/26 08:44:59;;;;;;;5.60;2.75;;;;;;;27.31;41.19;100766.34;1668020;85;21069;-59
2022/06/26 08:47:26;;;;;;;7.67;3.12;;;;;;;27.34;41.24;100764.54;1673862;84;21059;-59
2022/06/26 08:49:53;;;;;;;6.12;2.60;;;;;;;27.39;41.65;100759.82;1673523;84;21158;-59
2022/06/26 08:52:21;;;;;;;4.75;2.90;;;;;;;27.47;41.75;100764.08;1688499;83;21068;-59
2022/06/26 08:54:49;;;;;;;6.33;2.80;;;;;;;27.52;41.78;100769.63;1668730;84;21179;-59
2022/06/26 08:57:15;;;;;;;5.37;3.25;;;;;;;27.55;40.44;100761.08;1672896;84;21119;-59
2022/06/26 08:59:42;;;;;;;4.70;2.77;;;;;;;27.57;40.48;100763.87;1668487;84;21044;-59
2022/06/26 09:02:08;;;;;;;4.90;2.92;;;;;;;27.65;40.72;100765.95;1664970;84;21653;-58
2022/06/26 09:04:37;;;;;;;5.40;2.58;;;;;;;27.76;40.46;100762.49;1651061;85;21050;-59
2022/06/26 09:07:06;;;;;;;6.70;3.35;;;;;;;27.87;40.29;100754.94;1701148;83;21043;-59
2022/06/26 09:09:39;;;;;;;4.25;2.47;;;;;;;28.02;40.01;100761.33;1691736;82;21099;-59
2022/06/26 09:12:06;;;;;;;5.03;2.77;;;;;;;28.12;39.73;100758.89;1694121;82;21055;-59
2022/06/26 09:14:33;;;;;;;6.53;3.00;;;;;;;28.19;40.13;100757.98;1711304;82;23228;-59
2022/06/26 09:17:00;;;;;;;4.90;2.50;;;;;;;28.23;39.85;100760.00;1710488;82;21552;-59
2022/06/26 09:22:12;;;;;;;5.78;3.00;;;;;;;28.27;39.24;100759.82;1794567;78;22500;-58
2022/06/26 09:24:40;;;;;;;5.55;3.30;;;;;;;28.22;38.90;100755.63;1708765;83;21090;-59
2022/06/26 09:27:15;;;;;;;4.15;2.50;;;;;;;28.11;38.13;100759.97;1713948;83;21763;-59
2022/06/26 09:29:51;;;;;;;6.23;3.00;;;;;;;28.05;38.79;100761.41;1706815;83;21094;-58
2022/06/26 09:32:18;;;;;;;4.80;2.90;;;;;;;27.97;39.03;100760.69;1709960;82;21202;-59
2022/06/26 09:34:50;;;;;;;4.67;2.60;;;;;;;27.95;39.45;100751.95;1712749;83;21006;-59
2022/06/26 09:37:18;;;;;;;5.30;3.30;;;;;;;27.97;39.26;100750.38;1712106;83;21032;-61
2022/06/26 09:39:45;;;;;;;5.47;2.52;;;;;;;28.02;39.32;100759.16;1714557;82;21188;-59
2022/06/26 09:42:19;;;;;;;7.15;2.33;;;;;;;28.05;39.69;100759.52;1711749;82;21055;-60
2022/06/26 09:44:48;;;;;;;5.00;3.10;;;;;;;28.11;38.94;100765.38;1711932;83;20947;-60
2022/06/26 09:47:29;;;;;;;4.70;2.95;;;;;;;28.16;38.33;100769.56;1707286;82;21058;-61
2022/06/26 09:49:57;;;;;;;6.53;2.90;;;;;;;28.20;38.75;100765.87;1718335;82;21079;-59
2022/06/26 09:52:27;;;;;;;5.80;3.00;;;;;;;28.27;38.87;100760.36;1717835;81;21215;-58
2022/06/26 09:54:54;;;;;;;5.70;3.33;;;;;;;28.30;38.97;100759.36;1712827;82;21062;-59
2022/06/26 09:57:21;;;;;;;6.78;2.83;;;;;;;28.35;39.13;100754.61;1714008;82;21000;-59
2022/06/26 09:59:47;;;;;;;4.47;2.80;;;;;;;28.40;39.21;100758.80;1712795;83;21123;-60
2022/06/26 10:07:51;;;;;;;5.55;2.35;;;;;;;28.50;40.03;100760.41;1717147;81;21376;-58
2022/06/26 10:10:23;;;;;;;6.28;3.12;;;;;;;28.52;39.84;100767.76;1683498;83;21105;-59
2022/06/26 10:13:02;;;;;;;6.85;3.27;;;;;;;28.53;40.67;100765.90;1714255;82;21003;-59
2022/06/26 10:15:34;;;;;;;4.70;2.90;;;;;;;28.55;40.91;100769.19;1710188;82;21077;-59
2022/06/26 10:18:27;;;;;;;7.15;3.08;;;;;;;28.60;40.70;100763.12;1719472;83;21833;-60
2022/06/26 10:20:55;;;;;;;5.70;2.90;;;;;;;28.68;40.66;100769.00;1708375;83;21028;-60
2022/06/26 10:23:36;;;;;;;5.20;3.15;;;;;;;28.79;40.35;100767.36;1702379;82;21083;-59
2022/06/26 10:26:17;;;;;;;5.28;2.80;;;;;;;28.85;40.06;100765.58;1703344;83;21102;-59
2022/06/26 10:29:03;;;;;;;5.62;2.50;;;;;;;28.92;39.20;100766.31;1760529;79;21123;-59
2022/06/26 10:31:50;;;;;;;;;;;;;;;29.01;38.26;100764.88;1770550;80;21131;-60
2022/06/26 10:34:24;;;;;;;5.12;2.98;;;;;;;29.16;38.11;100764.94;1755706;79;20236;-58
2022/06/26 10:37:10;;;;;;;4.40;2.42;;;;;;;29.31;37.54;100769.37;1734131;81;21091;-60
2022/06/26 10:39:41;;;;;;;;;;;;;;;29.41;37.41;100768.77;1771724;80;20994;-59
2022/06/26 10:45:16;;;;;;;;;;;;;;;29.52;36.22;100762.50;1767270;80;21153;-59
2022/06/26 10:47:49;;;;;;;5.25;2.58;;;;;;;29.53;36.94;100764.67;1760203;80;20458;-59
2022/06/26 10:50:32;;;;;;;4.17;2.40;;;;;;;29.57;37.56;100763.11;1772249;80;21499;-59
2022/06/26 10:53:25;;;;;;;4.58;2.35;;;;;;;29.64;38.11;100765.17;1751290;80;21003;-60
2022/06/26 10:56:01;;;;;;;6.62;2.50;;;;;;;29.72;37.83;100762.60;1765319;80;21039;-59
2022/06/26 10:58:38;;;;;;;4.75;2.33;;;;;;;29.77;37.39;100760.86;1730943;82;21095;-59
2022/06/26 11:01:07;;;;;;;4.55;2.58;;;;;;;29.85;37.50;100765.06;1767242;79;21093;-59
2022/06/26 11:03:35;;;;;;;7.40;2.52;;;;;;;29.89;37.39;100759.97;1721124;81;21063;-60
2022/06/26 11:06:09;;;;;;;4.97;2.27;;;;;;;29.95;36.55;100761.19;1752754;80;21090;-59
2022/06/26 11:08:39;;;;;;;4.22;2.40;;;;;;;30.02;36.09;100756.97;1758128;80;21075;-60
2022/06/26 11:11:17;;;;;;;6.37;2.60;;;;;;;30.04;35.45;100760.25;1764949;80;21138;-60
2022/06/26 11:13:58;;;;;;;5.03;2.33;;;;;;;29.93;35.09;100755.19;1761508;79;21448;-61
2022/06/26 11:16:44;;;;;;;6.33;2.60;;;;;;;29.78;34.89;100756.25;1767550;79;21106;-60
2022/06/26 11:19:31;;;;;;;4.05;2.42;;;;;;;29.70;36.19;100749.28;1765678;80;21042;-59
2022/06/26 11:22:10;;;;;;;4.37;2.37;;;;;;;29.75;36.59;100748.56;1756654;79;21086;-60
2022/06/26 11:24:49;;;;;;;4.05;2.37;;;;;;;29.92;36.03;100748.64;1761326;80;21135;-60
2022/06/26 11:27:15;;;;;;;4.78;2.60;;;;;;;30.07;35.37;100751.63;1764648;79;21083;-61
2022/06/26 11:29:41;;;;;;;3.77;2.05;;;;;;;30.23;35.73;100753.25;1757492;80;21118;-60
2022/06/26 11:32:08;;;;;;;5.87;2.62;;;;;;;30.30;34.76;100753.94;1758319;79;21102;-61
2022/06/26 11:34:35;;;;;;;4.58;2.40;;;;;;;30.31;34.69;100748.78;1755569;80;21078;-61
2022/06/26 11:37:02;;;;;;;4.55;2.37;;;;;;;30.32;34.42;100755.33;1717707;80;21160;-58
2022/06/26 11:39:39;;;;;;;6.12;3.05;;;;;;;30.33;34.90;100744.77;1760427;79;21165;-62
2022/06/26 11:42:23;;;;;;;6.67;2.60;;;;;;;30.42;35.36;100745.21;1760405;80;21486;-58
2022/06/26 11:44:51;;;;;;;4.22;2.42;;;;;;;30.49;35.45;100736.36;1762040;80;21142;-59
2022/06/26 11:47:18;;;;;;;5.85;2.50;;;;;;;30.55;35.14;100740.00;1752872;80;21032;-60
2022/06/26 11:49:45;;;;;;;6.20;2.20;;;;;;;30.54;34.48;100744.58;1754256;79;21387;-60
2022/06/26 11:52:13;;;;;;;5.50;2.42;;;;;;;30.54;34.46;100739.70;1765349;80;21027;-60